createdAt,value
2023-05-23T00:02:15.569Z,16.72
2023-05-23T00:04:42.924Z,16.73
2023-05-23T00:07:15.239Z,16.75
2023-05-23T00:09:42.461Z,16.70
2023-05-23T00:12:09.340Z,16.64
2023-05-23T00:14:36.196Z,16.64
2023-05-23T00:17:03.300Z,16.64
2023-05-23T00:19:30.483Z,16.72
2023-05-23T00:21:58.481Z,16.76
2023-05-23T00:24:25.791Z,16.75
2023-05-23T00:26:52.785Z,16.76
2023-05-23T00:29:20.027Z,16.77
2023-05-23T00:31:47.569Z,16.81
2023-05-23T00:34:18.076Z,16.86
2023-05-23T00:36:47.661Z,16.87
2023-05-23T00:39:19.568Z,16.91
2023-05-23T00:41:52.120Z,16.88
2023-05-23T00:44:20.162Z,16.89
2023-05-23T00:46:54.168Z,16.92
2023-05-23T00:49:21.762Z,16.94
2023-05-23T00:51:50.032Z,16.99
2023-05-23T00:54:31.188Z,16.98
2023-05-23T00:56:59.774Z,16.95
2023-05-23T00:59:27.175Z,16.94
2023-05-23T01:01:58.437Z,16.95
2023-05-23T01:04:32.458Z,16.97
2023-05-23T01:07:00.732Z,16.98
2023-05-23T01:09:29.157Z,17.03
2023-05-23T01:12:33.354Z,17.07
2023-05-23T01:15:09.950Z,17.06
2023-05-23T01:18:03.005Z,17.09
2023-05-23T01:20:45.298Z,17.10
2023-05-23T01:23:24.136Z,17.13
2023-05-23T01:26:38.951Z,17.08
2023-05-23T01:29:16.724Z,17.15
2023-05-23T01:31:46.777Z,17.16
2023-05-23T01:34:14.661Z,17.18
2023-05-23T01:36:43.922Z,17.20
2023-05-23T01:39:11.972Z,17.17
2023-05-23T01:41:38.808Z,17.14
2023-05-23T01:44:06.038Z,17.13
2023-05-23T01:46:35.723Z,17.15
2023-05-23T01:49:06.925Z,17.16
2023-05-23T01:51:35.038Z,17.15
2023-05-23T01:54:02.171Z,17.13
2023-05-23T01:56:30.470Z,17.12
2023-05-23T01:58:57.852Z,17.16
2023-05-23T02:01:25.039Z,17.13
2023-05-23T02:03:51.857Z,17.08
2023-05-23T02:06:21.457Z,17.00
2023-05-23T02:08:48.404Z,17.02
2023-05-23T02:11:16.012Z,17.05
2023-05-23T02:13:45.424Z,17.10
2023-05-23T02:16:13.891Z,17.09
2023-05-23T02:18:40.763Z,17.12
2023-05-23T02:21:07.599Z,17.07
2023-05-23T02:23:36.917Z,17.04
2023-05-23T02:26:10.877Z,17.03
2023-05-23T02:28:37.745Z,17.06
2023-05-23T02:31:04.773Z,17.06
2023-05-23T02:33:31.632Z,17.01
2023-05-23T02:35:58.453Z,17.04
2023-05-23T02:38:26.825Z,17.04
2023-05-23T02:40:53.786Z,17.07
2023-05-23T02:43:20.655Z,17.07
2023-05-23T02:45:47.485Z,17.03
2023-05-23T02:48:14.337Z,17.03
2023-05-23T02:50:41.392Z,17.05
2023-05-23T02:53:08.307Z,17.06
2023-05-23T02:55:35.425Z,17.08
2023-05-23T02:58:05.632Z,17.05
2023-05-23T03:00:32.574Z,17.06
2023-05-23T03:02:59.574Z,17.13
2023-05-23T03:05:26.492Z,17.15
2023-05-23T03:07:54.669Z,17.15
2023-05-23T03:10:21.567Z,17.13
2023-05-23T03:12:48.322Z,17.13
2023-05-23T03:15:15.268Z,17.13
2023-05-23T03:17:42.472Z,17.13
2023-05-23T03:20:10.472Z,17.16
2023-05-23T03:22:39.828Z,17.21
2023-05-23T03:25:07.372Z,17.24
2023-05-23T03:27:34.145Z,17.29
2023-05-23T03:30:01.102Z,17.34
2023-05-23T03:32:27.876Z,17.39
2023-05-23T03:34:54.703Z,17.38
2023-05-23T03:37:21.924Z,17.39
2023-05-23T03:39:48.781Z,17.34
2023-05-23T03:42:15.615Z,17.36
2023-05-23T03:44:42.679Z,17.37
2023-05-23T03:47:09.721Z,17.41
2023-05-23T03:49:36.676Z,17.45
2023-05-23T03:52:03.498Z,17.46
2023-05-23T03:54:30.534Z,17.49
2023-05-23T03:56:57.424Z,17.50
2023-05-23T03:59:24.285Z,17.48
2023-05-23T04:01:51.040Z,17.49
2023-05-23T04:04:18.217Z,17.46
2023-05-23T04:06:46.103Z,17.41
2023-05-23T04:09:14.413Z,17.40
2023-05-23T04:11:41.441Z,17.43
2023-05-23T04:14:08.230Z,17.45
2023-05-23T04:16:36.267Z,17.44
2023-05-23T04:19:06.256Z,17.45
2023-05-23T04:21:34.126Z,17.44
2023-05-23T04:24:02.479Z,17.45
2023-05-23T04:26:29.295Z,17.45
2023-05-23T04:28:56.776Z,17.46
2023-05-23T04:31:23.702Z,17.44
2023-05-23T04:33:50.751Z,17.44
2023-05-23T04:36:18.322Z,17.39
2023-05-23T04:38:45.164Z,17.38
2023-05-23T04:41:12.119Z,17.36
2023-05-23T04:43:42.435Z,17.38
2023-05-23T04:46:10.094Z,17.38
2023-05-23T04:48:38.880Z,17.38
2023-05-23T04:51:08.545Z,17.38
2023-05-23T04:53:37.029Z,17.37
2023-05-23T04:56:04.003Z,17.38
2023-05-23T04:58:31.858Z,17.38
2023-05-23T05:00:58.842Z,17.36
2023-05-23T05:03:26.516Z,17.34
2023-05-23T05:05:53.846Z,17.35
2023-05-23T05:08:20.758Z,17.34
2023-05-23T05:10:47.853Z,17.31
2023-05-23T05:13:14.764Z,17.29
2023-05-23T05:15:42.500Z,17.30
2023-05-23T05:18:09.430Z,17.32
2023-05-23T05:20:36.316Z,17.30
2023-05-23T05:23:03.359Z,17.29
2023-05-23T05:25:32.309Z,17.28
2023-05-23T05:28:21.843Z,17.23
2023-05-23T05:30:54.010Z,17.21
2023-05-23T05:33:25.438Z,17.22
2023-05-23T05:35:52.439Z,17.22
2023-05-23T05:38:22.585Z,17.23
2023-05-23T05:40:49.393Z,17.24
2023-05-23T05:43:16.255Z,17.22
2023-05-23T05:45:43.229Z,17.21
2023-05-23T05:48:10.213Z,17.24
2023-05-23T05:50:37.053Z,17.31
2023-05-23T05:53:04.186Z,17.27
2023-05-23T05:55:31.447Z,17.23
2023-05-23T05:57:58.849Z,17.20
2023-05-23T06:00:25.926Z,17.24
2023-05-23T06:02:55.025Z,17.29
2023-05-23T06:05:22.171Z,17.31
2023-05-23T06:07:50.343Z,17.27
2023-05-23T06:10:17.443Z,17.33
2023-05-23T06:12:45.870Z,17.30
2023-05-23T06:15:15.966Z,17.25
2023-05-23T06:17:44.901Z,17.25
2023-05-23T06:20:12.293Z,17.23
2023-05-23T06:22:39.286Z,17.18
2023-05-23T06:25:07.597Z,17.18
2023-05-23T06:27:34.491Z,17.13
2023-05-23T06:30:02.257Z,17.12
2023-05-23T06:32:29.463Z,17.14
2023-05-23T06:34:56.452Z,17.13
2023-05-23T06:37:23.772Z,17.12
2023-05-23T06:39:50.540Z,17.14
2023-05-23T06:42:18.057Z,17.19
2023-05-23T06:44:44.862Z,17.21
2023-05-23T06:47:11.677Z,17.23
2023-05-23T06:49:38.486Z,17.20
2023-05-23T06:52:05.421Z,17.19
2023-05-23T06:54:32.482Z,17.18
2023-05-23T06:56:59.518Z,17.18
2023-05-23T06:59:26.345Z,17.20
2023-05-23T07:01:53.184Z,17.21
2023-05-23T07:04:22.777Z,17.24
2023-05-23T07:06:49.998Z,17.18
2023-05-23T07:09:18.323Z,17.15
2023-05-23T07:11:45.244Z,17.14
2023-05-23T07:14:12.103Z,17.13
2023-05-23T07:16:39.280Z,17.13
2023-05-23T07:19:06.348Z,17.16
2023-05-23T07:21:36.792Z,17.24
2023-05-23T07:24:03.697Z,17.34
2023-05-23T07:26:30.987Z,17.34
2023-05-23T07:28:58.742Z,17.37
2023-05-23T07:31:26.006Z,17.45
2023-05-23T07:33:56.714Z,17.43
2023-05-23T07:36:23.740Z,17.48
2023-05-23T07:38:50.606Z,17.48
2023-05-23T07:41:17.901Z,17.44
2023-05-23T07:43:44.689Z,17.46
2023-05-23T07:46:11.585Z,17.44
2023-05-23T07:48:38.396Z,17.45
2023-05-23T07:51:05.479Z,17.42
2023-05-23T07:53:32.250Z,17.44
2023-05-23T07:55:59.121Z,17.47
2023-05-23T07:58:26.052Z,17.49
2023-05-23T08:00:53.559Z,17.43
2023-05-23T08:03:20.644Z,17.35
2023-05-23T08:05:47.931Z,17.37
2023-05-23T08:08:14.768Z,17.42
2023-05-23T08:10:42.600Z,17.42
2023-05-23T08:13:10.599Z,17.41
2023-05-23T08:15:37.535Z,17.38
2023-05-23T08:18:05.212Z,17.43
2023-05-23T08:20:32.313Z,17.46
2023-05-23T08:23:00.998Z,17.51
2023-05-23T08:25:30.393Z,17.50
2023-05-23T08:27:58.765Z,17.45
2023-05-23T08:30:30.070Z,17.43
2023-05-23T08:32:57.934Z,17.43
2023-05-23T08:35:25.507Z,17.42
2023-05-23T08:37:52.839Z,17.46
2023-05-23T08:40:23.086Z,17.48
2023-05-23T08:42:51.368Z,17.57
2023-05-23T08:45:19.353Z,17.62
2023-05-23T08:47:47.490Z,17.69
2023-05-23T08:50:20.124Z,17.74
2023-05-23T08:52:58.860Z,17.76
2023-05-23T08:55:29.114Z,17.78
2023-05-23T08:58:03.562Z,17.76
2023-05-23T09:00:30.588Z,17.78
2023-05-23T09:02:57.687Z,17.77
2023-05-23T09:05:26.995Z,17.70
2023-05-23T09:07:55.012Z,17.68
2023-05-23T09:10:22.202Z,17.75
2023-05-23T09:12:49.695Z,17.75
2023-05-23T09:15:17.271Z,17.71
2023-05-23T09:17:45.532Z,17.67
2023-05-23T09:20:16.065Z,17.72
2023-05-23T09:22:48.259Z,17.79
2023-05-23T09:25:15.939Z,17.88
2023-05-23T09:27:47.470Z,17.92
2023-05-23T09:30:15.670Z,18.05
2023-05-23T09:32:42.695Z,18.11
2023-05-23T09:35:14.039Z,18.15
2023-05-23T09:37:46.972Z,18.19
2023-05-23T09:40:15.965Z,18.25
2023-05-23T09:42:45.978Z,18.31
2023-05-23T09:45:14.445Z,18.33
2023-05-23T09:47:54.324Z,18.29
2023-05-23T09:50:22.714Z,18.21
2023-05-23T09:52:51.099Z,18.11
2023-05-23T09:55:19.839Z,18.09
2023-05-23T09:57:56.687Z,18.09
2023-05-23T10:00:28.363Z,18.06
2023-05-23T10:03:13.821Z,18.02
2023-05-23T10:05:53.297Z,17.98
2023-05-23T10:08:46.917Z,17.97
2023-05-23T10:11:13.752Z,18.01
2023-05-23T10:13:49.047Z,18.05
2023-05-23T10:16:27.217Z,18.07
2023-05-23T10:19:06.039Z,18.06
2023-05-23T10:22:16.778Z,18.07
2023-05-23T10:24:46.326Z,18.11
2023-05-23T10:27:14.517Z,18.11
2023-05-23T10:29:42.019Z,18.22
2023-05-23T10:32:10.478Z,18.25
2023-05-23T10:35:03.999Z,18.34
2023-05-23T10:37:56.065Z,18.42
2023-05-23T10:40:30.730Z,18.46
2023-05-23T10:43:06.445Z,18.41
2023-05-23T10:45:44.505Z,18.40
2023-05-23T10:48:38.384Z,18.45
2023-05-23T10:51:11.234Z,18.42
2023-05-23T10:53:53.735Z,18.36
2023-05-23T10:56:24.367Z,18.27
2023-05-23T10:58:56.353Z,18.27
2023-05-23T11:01:24.096Z,18.34
2023-05-23T11:03:55.999Z,18.27
2023-05-23T11:06:38.643Z,18.30
2023-05-23T11:09:22.578Z,18.40
2023-05-23T11:12:04.587Z,18.65
2023-05-23T11:14:35.333Z,18.78
2023-05-23T11:17:17.617Z,18.90
2023-05-23T11:20:08.626Z,19.18
2023-05-23T11:22:36.652Z,19.65
2023-05-23T11:25:11.631Z,19.95
2023-05-23T11:27:41.727Z,20.06
2023-05-23T11:30:17.687Z,20.51
2023-05-23T11:32:54.093Z,20.73
2023-05-23T11:35:24.061Z,20.35
2023-05-23T11:37:51.473Z,20.32
2023-05-23T11:40:35.702Z,20.20
2023-05-23T11:43:05.890Z,20.05
2023-05-23T11:45:34.787Z,19.93
2023-05-23T11:48:10.121Z,19.83
2023-05-23T11:50:52.349Z,19.91
2023-05-23T11:53:25.006Z,19.90
2023-05-23T11:56:00.574Z,19.82
2023-05-23T11:58:31.723Z,19.68
2023-05-23T12:01:08.992Z,19.81
2023-05-23T12:03:51.111Z,19.95
2023-05-23T12:06:24.587Z,20.11
2023-05-23T12:08:55.760Z,20.36
2023-05-23T12:11:24.268Z,20.48
2023-05-23T12:13:53.391Z,20.54
2023-05-23T12:16:21.720Z,20.60
2023-05-23T12:18:48.800Z,20.96
2023-05-23T12:21:15.723Z,22.27
2023-05-23T12:23:42.990Z,23.29
2023-05-23T12:26:12.380Z,23.81
2023-05-23T12:28:45.167Z,23.60
2023-05-23T12:31:22.843Z,22.69
2023-05-23T12:33:53.322Z,22.10
2023-05-23T12:36:29.621Z,21.58
2023-05-23T12:39:03.506Z,21.05
2023-05-23T12:41:30.505Z,20.75
2023-05-23T12:43:57.804Z,20.58
2023-05-23T12:46:27.204Z,20.38
2023-05-23T12:48:54.874Z,20.14
2023-05-23T12:51:22.455Z,19.98
2023-05-23T12:53:49.986Z,19.92
2023-05-23T12:56:17.186Z,19.81
2023-05-23T12:58:44.049Z,19.86
2023-05-23T13:01:11.194Z,19.80
2023-05-23T13:03:38.147Z,19.73
2023-05-23T13:06:07.874Z,19.73
2023-05-23T13:08:34.666Z,19.67
2023-05-23T13:11:01.751Z,19.60
2023-05-23T13:13:28.967Z,19.53
2023-05-23T13:15:56.551Z,19.48
2023-05-23T13:18:23.673Z,19.40
2023-05-23T13:20:51.133Z,19.41
2023-05-23T13:23:18.082Z,19.41
2023-05-23T13:25:45.312Z,19.49
2023-05-23T13:28:12.393Z,19.45
2023-05-23T13:30:39.472Z,19.51
2023-05-23T13:33:06.488Z,19.62
2023-05-23T13:35:33.314Z,19.70
2023-05-23T13:38:00.386Z,19.84
2023-05-23T13:40:27.278Z,19.96
2023-05-23T13:42:54.342Z,20.08
2023-05-23T13:45:22.995Z,20.21
2023-05-23T13:47:50.061Z,20.29
2023-05-23T13:50:17.283Z,20.31
2023-05-23T13:52:48.312Z,20.38
2023-05-23T13:55:17.501Z,20.42
2023-05-23T13:57:45.051Z,20.97
2023-05-23T14:00:12.805Z,21.42
2023-05-23T14:02:39.990Z,21.62
2023-05-23T14:05:08.011Z,21.70
2023-05-23T14:07:34.925Z,21.69
2023-05-23T14:10:01.868Z,21.57
2023-05-23T14:12:29.265Z,21.46
2023-05-23T14:14:56.035Z,21.35
2023-05-23T14:17:23.086Z,21.15
2023-05-23T14:19:50.587Z,21.04
2023-05-23T14:22:20.421Z,21.00
2023-05-23T14:24:47.249Z,20.98
2023-05-23T14:27:14.644Z,21.07
2023-05-23T14:29:46.194Z,21.09
2023-05-23T14:32:13.678Z,21.23
2023-05-23T14:34:43.699Z,21.77
2023-05-23T14:37:10.565Z,22.56
2023-05-23T14:39:37.473Z,22.29
2023-05-23T14:42:04.935Z,21.65
2023-05-23T14:44:31.824Z,21.31
2023-05-23T14:46:58.758Z,21.17
2023-05-23T14:49:25.570Z,21.06
2023-05-23T14:51:52.457Z,20.96
2023-05-23T14:54:19.505Z,21.00
2023-05-23T14:56:46.542Z,21.04
2023-05-23T14:59:13.828Z,20.96
2023-05-23T15:01:42.281Z,20.92
2023-05-23T15:04:10.037Z,21.00
2023-05-23T15:06:38.852Z,21.01
2023-05-23T15:09:07.292Z,21.02
2023-05-23T15:11:38.649Z,20.99
2023-05-23T15:14:05.775Z,21.01
2023-05-23T15:16:33.174Z,21.03
2023-05-23T15:19:00.717Z,21.09
2023-05-23T15:21:28.161Z,21.27
2023-05-23T15:23:55.366Z,21.23
2023-05-23T15:26:22.529Z,21.87
2023-05-23T15:28:49.689Z,21.74
2023-05-23T15:31:16.614Z,21.57
2023-05-23T15:33:43.649Z,21.42
2023-05-23T15:36:13.043Z,21.16
2023-05-23T15:38:40.310Z,20.97
2023-05-23T15:41:07.463Z,20.86
2023-05-23T15:43:37.631Z,20.79
2023-05-23T15:46:05.405Z,20.73
2023-05-23T15:48:32.320Z,20.60
2023-05-23T15:50:59.122Z,20.54
2023-05-23T15:53:25.985Z,20.49
2023-05-23T15:55:52.766Z,20.50
2023-05-23T15:58:19.926Z,20.55
2023-05-23T16:00:46.794Z,20.58
2023-05-23T16:03:13.903Z,20.59
2023-05-23T16:05:41.127Z,20.56
2023-05-23T16:08:08.101Z,20.43
2023-05-23T16:10:35.002Z,20.35
2023-05-23T16:13:02.204Z,20.28
2023-05-23T16:15:29.497Z,20.26
2023-05-23T16:17:56.271Z,20.21
2023-05-23T16:20:24.654Z,20.14
2023-05-23T16:22:51.620Z,20.05
2023-05-23T16:25:19.239Z,20.00
2023-05-23T16:27:46.079Z,19.94
2023-05-23T16:30:13.248Z,19.88
2023-05-23T16:32:40.090Z,19.89
2023-05-23T16:35:08.101Z,19.92
2023-05-23T16:37:34.961Z,19.95
2023-05-23T16:40:01.811Z,20.01
2023-05-23T16:42:28.697Z,20.12
2023-05-23T16:44:58.416Z,20.15
2023-05-23T16:47:25.554Z,20.16
2023-05-23T16:49:52.385Z,20.16
2023-05-23T16:52:19.301Z,20.07
2023-05-23T16:54:46.232Z,20.05
2023-05-23T16:57:13.160Z,19.97
2023-05-23T16:59:41.188Z,19.95
2023-05-23T17:02:11.155Z,19.91
2023-05-23T17:04:38.073Z,19.88
2023-05-23T17:07:05.780Z,19.86
2023-05-23T17:09:32.684Z,19.78
2023-05-23T17:11:59.793Z,19.70
2023-05-23T17:14:26.759Z,19.64
2023-05-23T17:16:53.555Z,19.64
2023-05-23T17:19:20.805Z,19.53
2023-05-23T17:21:48.697Z,19.51
2023-05-23T17:24:16.032Z,19.50
2023-05-23T17:26:46.467Z,19.47
2023-05-23T17:29:13.464Z,19.39
2023-05-23T17:31:40.468Z,19.28
2023-05-23T17:34:07.433Z,19.24
2023-05-23T17:36:35.003Z,19.15
2023-05-23T17:39:01.845Z,19.04
2023-05-23T17:41:31.779Z,18.99
2023-05-23T17:43:58.871Z,18.93
2023-05-23T17:46:25.950Z,18.83
2023-05-23T17:48:52.810Z,18.78
2023-05-23T17:51:19.704Z,18.71
2023-05-23T17:53:46.560Z,18.68
2023-05-23T17:56:13.440Z,18.62
2023-05-23T17:58:41.814Z,18.48
2023-05-23T18:01:11.621Z,18.43
2023-05-23T18:03:41.300Z,18.40
2023-05-23T18:06:08.300Z,18.40
2023-05-23T18:08:35.169Z,18.40
2023-05-23T18:11:02.535Z,18.41
2023-05-23T18:13:29.359Z,18.39
2023-05-23T18:15:56.231Z,18.37
2023-05-23T18:18:23.432Z,18.25
2023-05-23T18:20:50.830Z,18.20
2023-05-23T18:23:17.822Z,18.18
2023-05-23T18:25:44.673Z,18.16
2023-05-23T18:28:12.052Z,18.16
2023-05-23T18:30:38.872Z,18.14
2023-05-23T18:33:05.941Z,18.11
2023-05-23T18:35:32.958Z,18.10
2023-05-23T18:37:59.810Z,18.10
2023-05-23T18:40:27.124Z,18.06
2023-05-23T18:42:54.266Z,18.05
2023-05-23T18:45:21.493Z,17.98
2023-05-23T18:47:48.554Z,17.91
2023-05-23T18:50:15.528Z,17.90
2023-05-23T18:52:42.847Z,17.92
2023-05-23T18:55:11.365Z,17.88
2023-05-23T18:57:38.528Z,17.81
2023-05-23T19:00:07.371Z,17.71
2023-05-23T19:02:35.835Z,17.72
2023-05-23T19:05:03.036Z,17.67
2023-05-23T19:07:29.899Z,17.67
2023-05-23T19:09:56.745Z,17.60
2023-05-23T19:12:24.153Z,17.55
2023-05-23T19:14:54.164Z,17.56
2023-05-23T19:17:21.297Z,17.57
2023-05-23T19:19:48.353Z,17.59
2023-05-23T19:22:16.016Z,17.56
2023-05-23T19:24:42.940Z,17.48
2023-05-23T19:27:09.789Z,17.50
2023-05-23T19:29:36.671Z,17.49
2023-05-23T19:32:03.656Z,17.48
2023-05-23T19:34:30.870Z,17.45
2023-05-23T19:36:57.968Z,17.43
2023-05-23T19:39:25.276Z,17.39
2023-05-23T19:41:52.100Z,17.39
2023-05-23T19:44:19.408Z,17.38
2023-05-23T19:46:46.182Z,17.36
2023-05-23T19:49:15.085Z,17.36
2023-05-23T19:51:41.997Z,17.35
2023-05-23T19:54:08.873Z,17.33
2023-05-23T19:56:36.219Z,17.33
2023-05-23T19:59:03.018Z,17.28
2023-05-23T20:01:30.779Z,17.22
2023-05-23T20:03:57.847Z,17.20
2023-05-23T20:06:25.382Z,17.18
2023-05-23T20:08:52.182Z,17.09
2023-05-23T20:11:19.208Z,17.09
2023-05-23T20:13:46.177Z,17.08
2023-05-23T20:16:13.155Z,17.07
2023-05-23T20:18:43.062Z,17.09
2023-05-23T20:21:10.003Z,17.08
2023-05-23T20:23:36.931Z,17.04
2023-05-23T20:26:04.049Z,17.01
2023-05-23T20:28:30.948Z,16.99
2023-05-23T20:30:58.199Z,16.96
2023-05-23T20:33:25.198Z,16.91
2023-05-23T20:35:52.224Z,16.90
2023-05-23T20:38:20.084Z,16.87
2023-05-23T20:40:50.833Z,16.77
2023-05-23T20:43:22.205Z,16.76
2023-05-23T20:45:49.088Z,16.78
2023-05-23T20:48:16.116Z,16.78
2023-05-23T20:50:46.199Z,16.78
2023-05-23T20:53:13.215Z,16.81
2023-05-23T20:55:40.575Z,16.81
2023-05-23T20:58:07.750Z,16.74
2023-05-23T21:00:34.548Z,16.69
2023-05-23T21:03:02.428Z,16.66
2023-05-23T21:05:30.073Z,16.71
2023-05-23T21:07:56.947Z,16.70
2023-05-23T21:10:23.733Z,16.64
2023-05-23T21:12:50.856Z,16.66
2023-05-23T21:15:18.517Z,16.64
2023-05-23T21:17:45.837Z,16.56
2023-05-23T21:20:13.572Z,16.55
2023-05-23T21:22:40.940Z,16.49
2023-05-23T21:25:08.182Z,16.54
2023-05-23T21:27:35.105Z,16.55
2023-05-23T21:30:02.542Z,16.52
2023-05-23T21:32:29.592Z,16.53
2023-05-23T21:34:56.649Z,16.46
2023-05-23T21:37:24.423Z,16.48
2023-05-23T21:39:52.594Z,16.47
2023-05-23T21:42:20.851Z,16.47
2023-05-23T21:44:48.144Z,16.41
2023-05-23T21:47:14.972Z,16.42
2023-05-23T21:49:42.379Z,16.45
2023-05-23T21:52:09.214Z,16.52
2023-05-23T21:54:36.199Z,16.49
2023-05-23T21:57:03.207Z,16.41
2023-05-23T21:59:30.644Z,16.33
2023-05-23T22:01:57.579Z,16.30
2023-05-23T22:04:24.556Z,16.28
2023-05-23T22:06:55.765Z,16.20
2023-05-23T22:09:22.553Z,16.17
2023-05-23T22:11:49.337Z,16.16
2023-05-23T22:14:16.090Z,16.13
2023-05-23T22:16:42.965Z,16.14
2023-05-23T22:19:12.740Z,16.13
2023-05-23T22:21:39.657Z,16.13
2023-05-23T22:24:06.826Z,16.13
2023-05-23T22:26:33.678Z,16.12
2023-05-23T22:29:00.976Z,16.07
2023-05-23T22:31:30.703Z,16.05
2023-05-23T22:33:57.577Z,16.04
2023-05-23T22:36:24.576Z,16.00
2023-05-23T22:38:51.538Z,16.02
2023-05-23T22:41:22.314Z,15.96
2023-05-23T22:43:49.532Z,15.94
2023-05-23T22:46:16.919Z,15.90
2023-05-23T22:48:44.784Z,15.88
2023-05-23T22:51:13.318Z,15.90
2023-05-23T22:53:41.195Z,15.91
2023-05-23T22:56:08.060Z,15.86
2023-05-23T22:58:35.004Z,15.79
2023-05-23T23:01:01.843Z,15.74
2023-05-23T23:03:28.771Z,15.73
2023-05-23T23:05:55.616Z,15.71
2023-05-23T23:08:22.492Z,15.70
2023-05-23T23:10:49.356Z,15.64
2023-05-23T23:13:19.330Z,15.53
2023-05-23T23:15:49.645Z,15.46
2023-05-23T23:18:16.641Z,15.44
2023-05-23T23:20:43.943Z,15.47
2023-05-23T23:23:11.353Z,15.45
2023-05-23T23:25:40.202Z,15.41
2023-05-23T23:28:07.126Z,15.46
2023-05-23T23:30:33.958Z,15.43
2023-05-23T23:33:03.583Z,15.38
2023-05-23T23:35:30.461Z,15.37
2023-05-23T23:37:59.242Z,15.37
2023-05-23T23:40:26.391Z,15.34
2023-05-23T23:42:53.491Z,15.28
2023-05-23T23:45:23.353Z,15.26
2023-05-23T23:47:50.219Z,15.23
2023-05-23T23:50:17.138Z,15.18
2023-05-23T23:52:44.197Z,15.16
2023-05-23T23:55:11.143Z,15.12
2023-05-23T23:57:38.000Z,15.14
